createdAt,value
2024-05-09T00:00:42.021Z,69.7807
2024-05-09T00:01:41.882Z,69.8638
2024-05-09T00:02:43.998Z,70.0629
2024-05-09T00:03:46.206Z,70.2282
2024-05-09T00:04:48.360Z,70.3711
2024-05-09T00:05:50.550Z,70.4419
2024-05-09T00:06:52.655Z,70.3729
2024-05-09T00:07:54.757Z,70.1531
2024-05-09T00:08:56.847Z,70.0898
2024-05-09T00:09:58.931Z,70.1689
2024-05-09T00:11:01.073Z,70.3537
2024-05-09T00:12:03.221Z,70.5612
2024-05-09T00:13:05.547Z,70.7617
2024-05-09T00:14:07.695Z,70.8781
2024-05-09T00:15:09.782Z,70.9041
2024-05-09T00:16:11.869Z,70.9021
2024-05-09T00:17:14.055Z,70.8751
2024-05-09T00:18:16.398Z,70.8777
2024-05-09T00:19:18.698Z,70.8831
2024-05-09T00:20:28.052Z,70.9458
2024-05-09T00:21:21.391Z,70.9460
2024-05-09T00:22:23.447Z,70.8377
2024-05-09T00:23:25.608Z,70.7469
2024-05-09T00:24:27.718Z,70.7722
2024-05-09T00:25:29.789Z,70.7808
2024-05-09T00:26:32.014Z,70.7575
2024-05-09T00:27:34.072Z,70.8284
2024-05-09T00:28:36.199Z,71.0104
2024-05-09T00:29:38.291Z,71.1597
2024-05-09T00:30:40.335Z,71.1695
2024-05-09T00:31:42.481Z,71.2093
2024-05-09T00:32:44.682Z,71.1699
2024-05-09T00:33:46.904Z,71.2316
2024-05-09T00:34:49.057Z,71.3376
2024-05-09T00:35:51.096Z,71.4905
2024-05-09T00:36:53.182Z,71.5395
2024-05-09T00:37:55.352Z,71.6774
2024-05-09T00:38:57.402Z,71.8282
2024-05-09T00:39:59.461Z,71.8921
2024-05-09T00:41:01.560Z,71.9709
2024-05-09T00:42:03.629Z,72.0040
2024-05-09T00:43:05.724Z,72.0448
2024-05-09T00:44:07.842Z,72.1080
2024-05-09T00:45:09.884Z,72.1775
2024-05-09T00:46:11.971Z,72.2460
2024-05-09T00:47:14.145Z,72.3140
2024-05-09T00:48:18.863Z,72.4007
2024-05-09T00:49:18.114Z,72.5443
2024-05-09T00:50:29.389Z,72.6475
2024-05-09T00:51:20.974Z,72.8058
2024-05-09T00:52:23.065Z,72.9800
2024-05-09T00:53:25.185Z,73.1233
2024-05-09T00:54:27.197Z,73.2298
2024-05-09T00:55:29.291Z,73.3363
2024-05-09T00:56:31.530Z,73.4077
2024-05-09T00:57:33.616Z,73.4898
2024-05-09T00:58:35.696Z,73.5241
2024-05-09T00:59:37.811Z,73.5238
2024-05-09T01:00:41.256Z,73.4890
2024-05-09T01:01:41.527Z,73.5465
2024-05-09T01:02:43.737Z,73.5653
2024-05-09T01:03:48.717Z,73.5377
2024-05-09T01:04:47.576Z,73.5024
2024-05-09T01:05:49.858Z,73.5224
2024-05-09T01:06:51.961Z,73.5673
2024-05-09T01:07:54.150Z,73.6137
2024-05-09T01:08:56.206Z,73.6749
2024-05-09T01:09:58.289Z,73.7009
2024-05-09T01:11:00.472Z,73.6939
2024-05-09T01:12:02.705Z,73.7736
2024-05-09T01:13:04.906Z,73.7908
2024-05-09T01:14:07.142Z,73.7745
2024-05-09T01:15:09.223Z,73.7363
2024-05-09T01:16:11.291Z,73.7273
2024-05-09T01:17:13.459Z,73.7438
2024-05-09T01:18:15.885Z,73.7960
2024-05-09T01:19:18.149Z,73.7956
2024-05-09T01:20:27.826Z,73.7745
2024-05-09T01:21:20.922Z,73.8004
2024-05-09T01:22:23.029Z,73.8082
2024-05-09T01:23:25.235Z,73.8379
2024-05-09T01:24:27.265Z,73.8586
2024-05-09T01:25:29.340Z,73.8652
2024-05-09T01:26:31.494Z,73.8880
2024-05-09T01:27:33.544Z,73.9230
2024-05-09T01:28:35.678Z,73.8893
2024-05-09T01:29:37.834Z,73.8359
2024-05-09T01:30:39.915Z,73.8516
2024-05-09T01:31:42.030Z,73.8648
2024-05-09T01:32:44.164Z,73.8009
2024-05-09T01:33:46.693Z,73.7043
2024-05-09T01:34:46.506Z,73.7020
2024-05-09T01:35:48.581Z,73.7357
2024-05-09T01:36:50.698Z,73.7032
2024-05-09T01:37:52.774Z,73.7440
2024-05-09T01:38:54.868Z,73.7850
2024-05-09T01:39:56.962Z,73.8207
2024-05-09T01:40:59.067Z,73.8775
2024-05-09T01:42:01.107Z,73.8993
2024-05-09T01:43:03.216Z,73.9204
2024-05-09T01:44:05.312Z,73.9350
2024-05-09T01:45:07.371Z,73.9498
2024-05-09T01:46:09.444Z,73.9622
2024-05-09T01:47:11.735Z,73.9266
2024-05-09T01:48:11.891Z,73.8943
2024-05-09T01:49:14.365Z,73.9058
2024-05-09T01:51:15.853Z,73.9171
2024-05-09T01:52:17.909Z,73.8851
2024-05-09T01:53:20.103Z,73.8824
2024-05-09T01:54:22.162Z,73.9037
2024-05-09T01:55:24.357Z,73.8798
2024-05-09T01:56:26.446Z,73.8962
2024-05-09T01:57:28.635Z,73.8796
2024-05-09T01:58:30.731Z,73.8494
2024-05-09T01:59:32.897Z,73.8627
2024-05-09T02:00:40.022Z,73.9275
2024-05-09T02:01:55.592Z,73.9846
2024-05-09T02:02:36.224Z,74.0093
2024-05-09T02:03:38.531Z,74.0148
2024-05-09T02:04:40.791Z,74.0288
2024-05-09T02:05:42.978Z,74.0659
2024-05-09T02:06:42.916Z,74.0813
2024-05-09T02:07:46.415Z,74.0694
2024-05-09T02:08:49.613Z,74.0838
2024-05-09T02:09:53.058Z,74.0992
2024-05-09T02:10:56.366Z,74.0873
2024-05-09T02:11:59.715Z,74.0353
2024-05-09T02:13:02.950Z,73.9934
2024-05-09T02:14:06.311Z,74.0404
2024-05-09T02:15:09.508Z,74.1068
2024-05-09T02:16:12.728Z,74.1185
2024-05-09T02:17:16.128Z,74.1063
2024-05-09T02:18:17.029Z,74.0946
2024-05-09T02:19:16.899Z,74.0628
2024-05-09T02:20:30.048Z,74.0153
2024-05-09T02:21:22.265Z,73.9741
2024-05-09T02:22:25.465Z,73.9202
2024-05-09T02:23:28.688Z,73.8433
2024-05-09T02:24:31.924Z,73.7907
2024-05-09T02:25:35.128Z,73.7674
2024-05-09T02:26:38.368Z,73.7535
2024-05-09T02:27:41.606Z,73.7214
2024-05-09T02:28:44.827Z,73.6779
2024-05-09T02:29:48.080Z,73.6534
2024-05-09T02:30:51.272Z,73.6728
2024-05-09T02:31:54.574Z,73.6509
2024-05-09T02:32:57.884Z,73.6494
2024-05-09T02:34:01.499Z,73.6675
2024-05-09T02:35:01.572Z,73.6502
2024-05-09T02:36:04.946Z,73.6002
2024-05-09T02:37:08.177Z,73.6076
2024-05-09T02:38:11.491Z,73.6053
2024-05-09T02:39:11.436Z,73.5724
2024-05-09T02:40:18.119Z,73.5238
2024-05-09T02:41:16.794Z,73.5026
2024-05-09T02:42:18.115Z,73.4702
2024-05-09T02:43:21.279Z,73.4327
2024-05-09T02:44:24.591Z,73.4438
2024-05-09T02:45:27.833Z,73.4748
2024-05-09T02:46:27.905Z,73.5052
2024-05-09T02:47:31.183Z,73.4868
2024-05-09T02:48:34.561Z,73.5161
2024-05-09T02:49:37.818Z,73.5228
2024-05-09T02:50:41.297Z,73.5012
2024-05-09T02:51:41.176Z,73.4652
2024-05-09T02:52:44.381Z,73.4233
2024-05-09T02:53:47.646Z,73.4001
2024-05-09T02:54:50.943Z,73.3793
2024-05-09T02:55:54.158Z,73.3579
2024-05-09T02:56:57.342Z,73.3375
2024-05-09T02:58:00.587Z,73.2936
2024-05-09T02:59:03.875Z,73.2711
2024-05-09T03:00:12.101Z,73.2532
2024-05-09T03:01:09.175Z,73.2605
2024-05-09T03:02:12.498Z,73.2854
2024-05-09T03:03:16.080Z,73.2980
2024-05-09T03:04:16.151Z,73.3133
2024-05-09T03:05:19.541Z,73.2989
2024-05-09T03:06:22.725Z,73.3168
2024-05-09T03:07:26.220Z,73.2896
2024-05-09T03:08:26.164Z,73.2883
2024-05-09T03:09:29.337Z,73.3398
2024-05-09T03:10:35.852Z,73.4111
2024-05-09T03:11:34.815Z,73.4367
2024-05-09T03:12:37.859Z,73.4449
2024-05-09T03:13:35.152Z,73.4129
2024-05-09T03:14:38.352Z,73.4782
2024-05-09T03:15:41.618Z,73.5968
2024-05-09T03:16:44.823Z,73.7336
2024-05-09T03:17:48.162Z,73.8145
2024-05-09T03:18:48.041Z,73.8451
2024-05-09T03:19:51.300Z,73.8494
2024-05-09T03:20:54.590Z,73.8576
2024-05-09T03:21:57.825Z,73.8461
2024-05-09T03:23:01.053Z,73.8668
2024-05-09T03:24:04.299Z,73.9079
2024-05-09T03:25:05.563Z,73.9436
2024-05-09T03:26:08.856Z,73.9915
2024-05-09T03:27:12.020Z,74.0246
2024-05-09T03:28:15.312Z,74.0542
2024-05-09T03:29:15.344Z,74.0404
2024-05-09T03:30:29.552Z,74.0649
2024-05-09T03:31:20.731Z,74.1055
2024-05-09T03:32:24.121Z,74.1153
2024-05-09T03:33:27.518Z,74.0636
2024-05-09T03:34:30.948Z,74.0886
2024-05-09T03:35:34.207Z,74.1388
2024-05-09T03:36:37.394Z,74.1706
2024-05-09T03:37:40.599Z,74.1895
2024-05-09T03:38:43.876Z,74.1984
2024-05-09T03:39:47.046Z,74.2318
2024-05-09T03:40:50.890Z,74.2567
2024-05-09T03:41:51.020Z,74.2434
2024-05-09T03:42:54.230Z,74.2555
2024-05-09T03:43:58.354Z,74.3129
2024-05-09T03:44:58.052Z,74.3889
2024-05-09T03:46:01.284Z,74.4283
2024-05-09T03:47:04.537Z,74.5205
2024-05-09T03:48:08.096Z,74.5847
2024-05-09T03:49:08.088Z,74.6692
2024-05-09T03:50:18.316Z,74.7002
2024-05-09T03:51:13.549Z,74.7228
2024-05-09T03:52:16.790Z,74.7141
2024-05-09T03:53:20.144Z,74.7191
2024-05-09T03:54:23.317Z,74.6931
2024-05-09T03:55:26.544Z,74.6534
2024-05-09T03:56:29.776Z,74.6110
2024-05-09T03:57:32.996Z,74.6069
2024-05-09T03:58:36.231Z,74.5932
2024-05-09T03:59:39.588Z,74.5874
2024-05-09T04:00:42.845Z,74.5837
2024-05-09T04:01:46.196Z,74.5837
2024-05-09T04:02:49.513Z,74.5498
2024-05-09T04:03:52.845Z,74.5101
2024-05-09T04:04:56.116Z,74.5114
2024-05-09T04:05:59.375Z,74.5200
2024-05-09T04:07:02.563Z,74.5744
2024-05-09T04:08:05.799Z,74.5924
2024-05-09T04:09:05.850Z,74.6313
2024-05-09T04:10:13.885Z,74.6868
2024-05-09T04:11:11.232Z,74.7218
2024-05-09T04:12:14.635Z,74.7297
2024-05-09T04:13:17.843Z,74.7312
2024-05-09T04:14:21.118Z,74.7486
2024-05-09T04:15:24.355Z,74.7962
2024-05-09T04:16:24.416Z,74.8773
2024-05-09T04:17:27.740Z,74.9137
2024-05-09T04:18:31.091Z,74.9173
2024-05-09T04:19:34.535Z,74.9086
2024-05-09T04:20:40.364Z,74.9030
2024-05-09T04:21:40.951Z,74.8983
2024-05-09T04:22:44.267Z,74.8823
2024-05-09T04:23:47.547Z,74.9688
2024-05-09T04:24:50.786Z,75.0193
2024-05-09T04:25:54.839Z,75.0882
2024-05-09T04:26:54.558Z,75.1403
2024-05-09T04:27:57.830Z,75.2019
2024-05-09T04:29:01.086Z,75.2313
2024-05-09T04:30:06.098Z,75.2654
2024-05-09T04:31:07.459Z,75.3448
2024-05-09T04:32:10.817Z,75.4165
2024-05-09T04:33:14.943Z,75.4713
2024-05-09T04:34:15.216Z,75.4962
2024-05-09T04:35:18.501Z,75.5044
2024-05-09T04:36:21.711Z,75.5090
2024-05-09T04:37:24.976Z,75.5079
2024-05-09T04:38:28.221Z,75.5625
2024-05-09T04:39:31.438Z,75.6128
2024-05-09T04:40:36.698Z,75.6354
2024-05-09T04:41:37.281Z,75.6830
2024-05-09T04:42:40.485Z,75.7230
2024-05-09T04:43:43.712Z,75.7186
2024-05-09T04:44:46.953Z,75.6945
2024-05-09T04:45:50.180Z,75.6785
2024-05-09T04:46:53.512Z,75.6615
2024-05-09T04:47:56.966Z,75.6600
2024-05-09T04:48:56.915Z,75.6413
2024-05-09T04:50:00.203Z,75.5952
2024-05-09T04:51:03.709Z,75.6042
2024-05-09T04:52:03.498Z,75.6128
2024-05-09T04:53:07.613Z,75.6290
2024-05-09T04:54:10.738Z,75.6427
2024-05-09T04:55:09.178Z,75.6607
2024-05-09T04:56:12.495Z,75.6594
2024-05-09T04:57:15.708Z,75.6912
2024-05-09T04:58:18.906Z,75.7167
2024-05-09T04:59:22.296Z,75.7295
2024-05-09T05:00:32.044Z,75.7231
2024-05-09T05:01:27.677Z,75.7198
2024-05-09T05:02:30.951Z,75.7061
2024-05-09T05:03:34.292Z,75.6507
2024-05-09T05:04:37.635Z,75.6028
2024-05-09T05:05:41.361Z,75.5488
2024-05-09T05:06:41.326Z,75.5505
2024-05-09T05:07:44.592Z,75.5586
2024-05-09T05:08:47.823Z,75.5755
2024-05-09T05:09:51.039Z,75.5698
2024-05-09T05:10:54.437Z,75.5181
2024-05-09T05:11:57.831Z,75.4607
2024-05-09T05:13:01.083Z,75.4372
2024-05-09T05:14:04.394Z,75.4187
2024-05-09T05:15:07.580Z,75.3947
2024-05-09T05:16:10.802Z,75.3876
2024-05-09T05:17:14.091Z,75.3970
2024-05-09T05:18:17.463Z,75.3913
2024-05-09T05:19:17.839Z,75.4042
2024-05-09T05:20:27.038Z,75.4592
2024-05-09T05:21:19.861Z,75.4965
2024-05-09T05:22:23.094Z,75.5370
2024-05-09T05:23:26.409Z,75.5673
2024-05-09T05:24:29.642Z,75.5960
2024-05-09T05:25:32.865Z,75.6471
2024-05-09T05:26:36.167Z,75.6927
2024-05-09T05:27:39.417Z,75.6958
2024-05-09T05:28:42.652Z,75.6542
2024-05-09T05:29:45.915Z,75.6074
2024-05-09T05:30:49.126Z,75.5567
2024-05-09T05:31:52.443Z,75.4985
2024-05-09T05:32:55.889Z,75.4532
2024-05-09T05:33:55.923Z,75.3892
2024-05-09T05:34:59.213Z,75.3085
2024-05-09T05:36:02.450Z,75.2401
2024-05-09T05:37:05.648Z,75.1907
2024-05-09T05:38:09.004Z,75.2340
2024-05-09T05:39:09.161Z,75.2642
2024-05-09T05:40:20.629Z,75.2882
2024-05-09T05:41:14.608Z,75.3145
2024-05-09T05:42:17.850Z,75.3494
2024-05-09T05:43:21.067Z,75.3974
2024-05-09T05:44:24.364Z,75.4066
2024-05-09T05:45:27.609Z,75.3881
2024-05-09T05:46:30.841Z,75.3845
2024-05-09T05:47:34.323Z,75.4399
2024-05-09T05:48:34.331Z,75.5033
2024-05-09T05:49:34.290Z,75.5480
2024-05-09T05:50:38.591Z,75.5471
2024-05-09T05:51:38.616Z,75.5095
2024-05-09T05:52:41.841Z,75.4584
2024-05-09T05:53:45.137Z,75.3757
2024-05-09T05:54:48.348Z,75.2943
2024-05-09T05:55:51.628Z,75.3105
2024-05-09T05:56:54.895Z,75.3472
2024-05-09T05:57:58.129Z,75.3336
2024-05-09T05:59:01.425Z,75.3340
2024-05-09T06:00:09.233Z,75.3745
2024-05-09T06:01:06.814Z,75.4045
2024-05-09T06:02:10.236Z,75.4107
2024-05-09T06:03:14.290Z,75.3916
2024-05-09T06:04:14.322Z,75.3478
2024-05-09T06:05:17.605Z,75.3134
2024-05-09T06:06:21.024Z,75.2969
2024-05-09T06:07:24.198Z,75.2900
2024-05-09T06:08:30.256Z,75.3413
2024-05-09T06:09:30.374Z,75.4092
2024-05-09T06:10:38.742Z,75.4583
2024-05-09T06:11:35.803Z,75.5357
2024-05-09T06:12:39.124Z,75.6064
2024-05-09T06:13:42.338Z,75.6540
2024-05-09T06:14:45.573Z,75.6561
2024-05-09T06:15:48.976Z,75.6339
2024-05-09T06:16:54.057Z,75.6016
2024-05-09T06:17:54.595Z,75.5907
2024-05-09T06:18:54.602Z,75.5539
2024-05-09T06:19:54.884Z,75.5595
2024-05-09T06:20:55.091Z,75.6034
2024-05-09T06:21:58.308Z,75.6397
2024-05-09T06:23:01.671Z,75.6558
2024-05-09T06:24:06.778Z,75.6580
2024-05-09T06:25:06.536Z,75.6389
2024-05-09T06:26:09.845Z,75.6118
2024-05-09T06:27:13.038Z,75.6225
2024-05-09T06:28:16.363Z,75.6483
2024-05-09T06:29:19.601Z,75.6299
2024-05-09T06:30:30.115Z,75.6244
2024-05-09T06:31:25.005Z,75.6362
2024-05-09T06:32:28.348Z,75.6353
2024-05-09T06:33:31.764Z,75.6165
2024-05-09T06:34:35.082Z,75.5672
2024-05-09T06:35:38.521Z,75.5130
2024-05-09T06:36:38.331Z,75.4745
2024-05-09T06:37:41.615Z,75.4275
2024-05-09T06:38:44.931Z,75.4071
2024-05-09T06:39:48.145Z,75.3985
2024-05-09T06:40:51.427Z,75.3563
2024-05-09T06:41:51.388Z,75.2794
2024-05-09T06:42:54.621Z,75.1854
2024-05-09T06:43:57.962Z,75.0620
2024-05-09T06:45:01.152Z,74.9310
2024-05-09T06:46:04.376Z,74.8361
2024-05-09T06:47:07.785Z,74.7861
2024-05-09T06:48:11.267Z,74.7190
2024-05-09T06:49:11.412Z,74.6419
2024-05-09T06:50:20.153Z,74.5906
2024-05-09T06:51:13.742Z,74.5885
2024-05-09T06:52:16.962Z,74.5794
2024-05-09T06:53:20.380Z,74.5582
2024-05-09T06:54:23.711Z,74.5340
2024-05-09T06:55:26.939Z,74.4037
2024-05-09T06:56:30.358Z,74.2498
2024-05-09T06:57:33.561Z,74.1717
2024-05-09T06:58:36.908Z,74.0748
2024-05-09T06:59:40.268Z,73.9629
2024-05-09T07:00:43.633Z,73.9051
2024-05-09T07:01:46.920Z,73.9332
2024-05-09T07:02:50.349Z,73.9661
2024-05-09T07:03:53.663Z,73.9524
2024-05-09T07:04:57.018Z,73.8471
2024-05-09T07:05:56.938Z,73.7835
2024-05-09T07:07:00.212Z,73.7931
2024-05-09T07:08:03.526Z,73.7318
2024-05-09T07:09:06.768Z,73.6546
2024-05-09T07:10:14.990Z,73.6442
2024-05-09T07:11:12.229Z,73.5956
2024-05-09T07:12:15.539Z,73.5413
2024-05-09T07:13:18.890Z,73.5066
2024-05-09T07:14:22.194Z,73.5638
2024-05-09T07:15:25.395Z,73.5855
2024-05-09T07:16:28.622Z,73.5581
2024-05-09T07:17:32.088Z,73.4880
2024-05-09T07:18:35.508Z,73.4037
2024-05-09T07:19:35.515Z,73.3379
2024-05-09T07:20:38.807Z,73.2107
2024-05-09T07:21:42.059Z,73.0845
2024-05-09T07:22:45.410Z,73.0065
2024-05-09T07:23:48.723Z,72.9856
2024-05-09T07:24:52.031Z,73.0251
2024-05-09T07:25:55.321Z,73.0682
2024-05-09T07:26:58.540Z,73.1247
2024-05-09T07:28:01.899Z,73.1154
2024-05-09T07:29:05.161Z,73.1530
2024-05-09T07:30:09.424Z,73.2031
2024-05-09T07:31:11.277Z,73.2449
2024-05-09T07:32:14.730Z,73.1966
2024-05-09T07:33:14.757Z,73.0619
2024-05-09T07:34:14.830Z,72.8916
2024-05-09T07:35:14.664Z,72.7233
2024-05-09T07:36:17.851Z,72.6276
2024-05-09T07:37:21.075Z,72.5789
2024-05-09T07:38:24.490Z,72.5420
2024-05-09T07:39:27.731Z,72.5217
2024-05-09T07:40:35.966Z,72.4924
2024-05-09T07:41:33.385Z,72.4433
2024-05-09T07:42:36.569Z,72.3083
2024-05-09T07:43:39.804Z,72.1083
2024-05-09T07:44:43.165Z,71.9855
2024-05-09T07:47:48.609Z,71.8888
2024-05-09T07:49:13.573Z,71.9105
2024-05-09T07:52:45.973Z,71.9563
2024-05-09T07:53:22.088Z,71.8765
2024-05-09T07:53:36.082Z,71.7220
2024-05-09T07:54:04.412Z,71.6080
2024-05-09T07:55:04.708Z,71.5118
2024-05-09T07:56:09.359Z,71.4061
2024-05-09T07:57:09.798Z,71.3778
2024-05-09T07:58:13.151Z,71.4401
2024-05-09T07:59:16.433Z,71.4594
2024-05-09T08:00:23.734Z,71.4107
2024-05-09T08:01:22.062Z,71.4168
2024-05-09T08:02:22.256Z,71.4372
2024-05-09T08:03:22.368Z,71.4624
2024-05-09T08:04:26.778Z,71.4691
2024-05-09T08:05:26.753Z,71.3779
2024-05-09T08:06:30.087Z,71.1449
2024-05-09T08:07:33.426Z,70.8201
2024-05-09T08:08:36.621Z,70.5555
2024-05-09T08:09:39.976Z,70.3871
2024-05-09T08:10:43.502Z,70.3199
2024-05-09T08:11:43.386Z,70.1766
2024-05-09T08:12:46.592Z,70.0301
2024-05-09T08:13:49.857Z,69.9445
2024-05-09T08:14:53.270Z,69.8502
2024-05-09T08:15:56.579Z,69.7900
2024-05-09T08:16:59.810Z,69.7620
2024-05-09T08:18:03.237Z,69.6808
2024-05-09T08:19:06.682Z,69.6343
2024-05-09T08:20:11.355Z,69.6709
2024-05-09T08:21:13.120Z,69.6572
2024-05-09T08:22:12.891Z,69.5790
2024-05-09T08:23:16.095Z,69.5283
2024-05-09T08:24:19.333Z,69.4733
2024-05-09T08:25:22.618Z,69.3886
2024-05-09T08:26:25.836Z,69.3654
2024-05-09T08:27:29.136Z,69.3313
2024-05-09T08:28:32.394Z,69.3049
2024-05-09T08:29:35.604Z,69.2907
2024-05-09T08:30:38.951Z,69.2999
2024-05-09T08:31:42.276Z,69.2877
2024-05-09T08:32:45.736Z,69.2611
2024-05-09T08:33:49.092Z,69.2544
2024-05-09T08:34:52.536Z,69.2590
2024-05-09T08:35:55.806Z,69.2393
2024-05-09T08:37:03.913Z,69.2514
2024-05-09T08:38:01.342Z,69.2533
2024-05-09T08:39:04.643Z,69.2153
2024-05-09T08:40:11.133Z,69.2067
2024-05-09T08:41:10.156Z,69.3164
2024-05-09T08:42:13.396Z,69.4428
2024-05-09T08:43:16.831Z,69.4635
2024-05-09T08:44:16.612Z,69.3877
2024-05-09T08:45:16.738Z,69.3719
2024-05-09T08:46:20.129Z,69.3837
2024-05-09T08:47:20.007Z,69.3717
2024-05-09T08:48:23.510Z,69.3855
2024-05-09T08:49:23.651Z,69.4075
2024-05-09T08:50:35.457Z,69.3826
2024-05-09T08:51:29.178Z,69.3194
2024-05-09T08:52:32.434Z,69.2515
2024-05-09T08:53:35.646Z,69.0975
2024-05-09T08:54:38.909Z,68.9244
2024-05-09T08:55:43.769Z,68.7919
2024-05-09T08:56:44.043Z,68.6783
2024-05-09T08:57:47.364Z,68.5728
2024-05-09T08:58:50.542Z,68.5746
2024-05-09T08:59:53.766Z,68.6098
2024-05-09T09:00:57.123Z,68.6304
2024-05-09T09:02:00.489Z,68.6159
2024-05-09T09:03:03.819Z,68.4969
2024-05-09T09:04:07.338Z,68.3871
2024-05-09T09:05:07.241Z,68.3251
2024-05-09T09:06:10.486Z,68.2037
2024-05-09T09:07:13.847Z,68.1012
2024-05-09T09:08:17.080Z,67.9997
2024-05-09T09:09:20.368Z,67.8534
2024-05-09T09:10:29.804Z,67.6631
2024-05-09T09:11:25.723Z,67.4698
2024-05-09T09:12:28.978Z,67.3434
2024-05-09T09:13:32.217Z,67.3389
2024-05-09T09:14:35.528Z,67.2989
2024-05-09T09:15:38.740Z,67.2355
2024-05-09T09:16:41.936Z,67.2677
2024-05-09T09:17:45.198Z,67.2693
2024-05-09T09:18:48.524Z,67.2384
2024-05-09T09:19:48.469Z,67.3049
2024-05-09T09:20:51.762Z,67.4267
2024-05-09T09:21:55.018Z,67.5086
2024-05-09T09:22:58.252Z,67.4937
2024-05-09T09:24:01.612Z,67.3159
2024-05-09T09:25:04.993Z,67.0897
2024-05-09T09:26:08.303Z,66.9728
2024-05-09T09:27:11.546Z,66.8680
2024-05-09T09:28:14.956Z,66.8608
2024-05-09T09:29:18.185Z,66.9688
2024-05-09T09:30:34.005Z,66.9974
2024-05-09T09:31:23.598Z,67.0042
2024-05-09T09:32:23.598Z,67.0301
2024-05-09T09:33:40.946Z,66.9626
2024-05-09T09:34:43.301Z,66.8559
2024-05-09T09:35:45.431Z,66.7258
2024-05-09T09:36:45.584Z,66.6296
2024-05-09T09:37:47.764Z,66.5540
2024-05-09T09:38:49.835Z,66.4569
2024-05-09T09:39:51.985Z,66.3045
2024-05-09T09:40:54.204Z,66.2254
2024-05-09T09:41:56.308Z,66.1834
2024-05-09T09:42:58.506Z,66.0878
2024-05-09T09:44:00.620Z,65.8577
2024-05-09T09:45:05.460Z,65.6429
2024-05-09T09:46:03.149Z,65.5275
2024-05-09T09:47:05.290Z,65.3011
2024-05-09T09:48:07.522Z,65.1181
2024-05-09T09:49:09.645Z,64.8774
2024-05-09T09:50:14.634Z,64.5041
2024-05-09T09:51:12.368Z,64.3766
2024-05-09T09:52:14.659Z,64.2203
2024-05-09T09:53:16.809Z,64.2815
2024-05-09T09:54:18.921Z,64.3867
2024-05-09T09:55:21.096Z,64.3480
2024-05-09T09:56:23.226Z,64.2835
2024-05-09T09:57:25.349Z,64.1982
2024-05-09T09:58:27.699Z,63.9958
2024-05-09T09:59:29.784Z,63.7297
2024-05-09T10:00:33.528Z,63.4516
2024-05-09T10:01:33.797Z,63.0975
2024-05-09T10:02:35.940Z,63.0528
2024-05-09T10:03:38.341Z,62.8900
2024-05-09T10:04:38.289Z,62.2987
2024-05-09T10:05:42.097Z,61.4344
2024-05-09T10:06:41.361Z,60.9178
2024-05-09T10:07:43.472Z,60.5949
2024-05-09T10:08:45.609Z,60.2300
2024-05-09T10:09:47.768Z,59.8178
2024-05-09T10:10:50.242Z,59.6161
2024-05-09T10:11:52.360Z,59.6026
2024-05-09T10:12:51.833Z,59.3685
2024-05-09T10:13:54.034Z,58.9376
2024-05-09T10:14:56.158Z,58.6051
2024-05-09T10:15:58.415Z,58.6393
2024-05-09T10:17:00.659Z,58.4468
2024-05-09T10:18:03.095Z,58.5514
2024-05-09T10:19:05.363Z,58.1864
2024-05-09T10:20:14.657Z,57.9545
2024-05-09T10:21:08.078Z,57.6827
2024-05-09T10:22:10.344Z,57.7088
2024-05-09T10:23:12.621Z,57.7973
2024-05-09T10:24:14.702Z,57.7288
2024-05-09T10:25:16.874Z,57.7225
2024-05-09T10:26:19.112Z,57.9547
2024-05-09T10:27:21.311Z,57.7721
2024-05-09T10:28:23.546Z,57.1264
2024-05-09T10:29:25.718Z,56.7868
2024-05-09T10:30:34.082Z,56.4904
2024-05-09T10:31:28.561Z,56.6725
2024-05-09T10:32:30.745Z,56.9585
2024-05-09T10:33:33.103Z,56.7167
2024-05-09T10:34:35.414Z,56.5320
2024-05-09T10:35:37.570Z,57.0098
2024-05-09T10:36:39.873Z,57.2391
2024-05-09T10:37:42.025Z,57.1076
2024-05-09T10:38:44.138Z,57.0375
2024-05-09T10:39:46.341Z,56.8835
2024-05-09T10:40:48.447Z,56.7009
2024-05-09T10:41:50.731Z,56.0758
2024-05-09T10:42:52.900Z,55.6531
2024-05-09T10:43:55.024Z,55.6125
2024-05-09T10:44:57.120Z,55.7792
2024-05-09T10:45:59.265Z,55.6101
2024-05-09T10:47:01.401Z,55.5190
2024-05-09T10:48:03.601Z,55.6565
2024-05-09T10:49:07.875Z,55.8465
2024-05-09T10:50:15.737Z,56.0473
2024-05-09T10:51:08.249Z,56.1670
2024-05-09T10:52:10.473Z,56.2547
2024-05-09T10:53:12.582Z,56.4211
2024-05-09T10:54:14.692Z,56.4043
2024-05-09T10:55:17.079Z,56.2927
2024-05-09T10:56:19.183Z,56.0572
2024-05-09T10:57:21.343Z,55.9048
2024-05-09T10:58:23.581Z,55.8537
2024-05-09T10:59:25.689Z,55.7470
2024-05-09T11:00:33.595Z,55.6357
2024-05-09T11:01:28.758Z,55.5204
2024-05-09T11:02:31.122Z,55.2800
2024-05-09T11:03:31.117Z,55.0446
2024-05-09T11:04:33.337Z,54.8741
2024-05-09T11:05:35.528Z,54.7984
2024-05-09T11:06:37.690Z,54.6400
2024-05-09T11:07:40.025Z,54.3393
2024-05-09T11:08:42.216Z,53.6404
2024-05-09T11:09:44.451Z,52.8261
2024-05-09T11:10:46.702Z,52.3776
2024-05-09T11:11:48.879Z,52.4942
2024-05-09T11:12:51.180Z,52.7377
2024-05-09T11:13:53.263Z,53.2509
2024-05-09T11:14:55.492Z,53.3262
2024-05-09T11:15:57.603Z,52.3904
2024-05-09T11:16:58.245Z,52.0456
2024-05-09T11:18:00.583Z,51.6865
2024-05-09T11:19:02.900Z,51.4073
2024-05-09T11:20:13.298Z,51.3063
2024-05-09T11:21:05.697Z,51.3029
2024-05-09T11:22:07.925Z,51.3301
2024-05-09T11:23:10.118Z,51.4011
2024-05-09T11:24:12.194Z,51.5210
2024-05-09T11:25:14.418Z,51.6981
2024-05-09T11:26:16.541Z,51.7079
2024-05-09T11:27:18.655Z,51.2621
2024-05-09T11:28:20.903Z,50.5328
2024-05-09T11:29:23.018Z,49.7773
2024-05-09T11:30:30.115Z,49.3574
2024-05-09T11:31:25.972Z,49.2763
2024-05-09T11:32:28.327Z,49.2392
2024-05-09T11:33:30.634Z,49.4857
2024-05-09T11:34:32.901Z,49.7022
2024-05-09T11:35:35.058Z,49.8289
2024-05-09T11:36:37.207Z,49.8642
2024-05-09T11:37:39.346Z,49.9783
2024-05-09T11:38:41.473Z,50.1486
2024-05-09T11:39:43.612Z,50.1144
2024-05-09T11:40:45.728Z,50.2500
2024-05-09T11:41:47.861Z,50.4648
2024-05-09T11:42:52.498Z,50.4729
2024-05-09T11:43:50.180Z,50.4473
2024-05-09T11:44:52.287Z,50.6059
2024-05-09T11:45:54.431Z,50.4347
2024-05-09T11:46:56.508Z,50.2750
2024-05-09T11:47:58.846Z,50.3947
2024-05-09T11:49:01.110Z,50.4224
2024-05-09T11:50:04.365Z,50.2444
2024-05-09T11:51:04.765Z,49.9624
2024-05-09T11:52:06.909Z,49.7470
2024-05-09T11:53:09.049Z,49.5661
2024-05-09T11:54:11.126Z,49.6843
2024-05-09T11:55:13.320Z,49.6933
2024-05-09T11:56:15.432Z,49.9606
2024-05-09T11:57:17.522Z,50.2845
2024-05-09T11:58:19.854Z,50.4945
2024-05-09T11:59:22.118Z,50.6270
2024-05-09T12:00:33.754Z,50.6766
2024-05-09T12:01:27.510Z,50.8587
2024-05-09T12:02:25.079Z,50.9481
2024-05-09T12:03:27.352Z,50.9895
2024-05-09T12:04:29.581Z,51.1108
2024-05-09T12:05:32.035Z,51.2276
2024-05-09T12:06:31.899Z,51.1048
2024-05-09T12:07:34.037Z,51.0589
2024-05-09T12:08:36.152Z,51.0316
2024-05-09T12:09:38.401Z,51.0667
2024-05-09T12:10:40.769Z,51.0434
2024-05-09T12:11:40.525Z,51.0012
2024-05-09T12:12:42.642Z,51.1179
2024-05-09T12:13:44.791Z,51.0963
2024-05-09T12:14:46.901Z,50.7349
2024-05-09T12:15:49.044Z,50.5765
2024-05-09T12:16:51.275Z,50.4244
2024-05-09T12:17:53.573Z,50.1709
2024-05-09T12:18:55.984Z,50.0750
2024-05-09T12:19:58.182Z,50.1356
2024-05-09T12:21:00.305Z,50.2402
2024-05-09T12:22:02.466Z,50.3338
2024-05-09T12:23:04.613Z,50.4172
2024-05-09T12:24:06.687Z,50.4247
2024-05-09T12:25:08.898Z,50.2992
2024-05-09T12:26:11.075Z,50.2110
2024-05-09T12:27:11.140Z,50.2391
2024-05-09T12:28:13.314Z,49.9099
2024-05-09T12:29:15.451Z,49.3430
2024-05-09T12:30:29.034Z,49.2947
2024-05-09T12:31:18.214Z,49.2047
2024-05-09T12:32:20.432Z,49.2934
2024-05-09T12:33:22.674Z,49.0452
2024-05-09T12:34:24.782Z,48.4999
2024-05-09T12:35:26.895Z,48.3892
2024-05-09T12:36:27.557Z,48.2433
2024-05-09T12:37:29.719Z,48.3858
2024-05-09T12:38:31.838Z,48.5680
2024-05-09T12:39:33.988Z,48.8816